createdAt,value
2022-10-24T00:01:09.524Z,18.21
2022-10-24T00:03:36.208Z,18.19
2022-10-24T00:06:05.881Z,18.19
2022-10-24T00:08:32.649Z,18.15
2022-10-24T00:10:59.190Z,18.08
2022-10-24T00:13:25.961Z,18.13
2022-10-24T00:15:52.516Z,18.12
2022-10-24T00:18:19.113Z,18.13
2022-10-24T00:20:45.703Z,18.12
2022-10-24T00:23:13.653Z,18.08
2022-10-24T00:25:40.432Z,18.11
2022-10-24T00:28:06.972Z,18.12
2022-10-24T00:30:33.580Z,18.15
2022-10-24T00:33:00.287Z,18.15
2022-10-24T00:35:27.124Z,18.13
2022-10-24T00:37:53.759Z,18.10
2022-10-24T00:40:21.088Z,18.06
2022-10-24T00:42:48.745Z,18.05
2022-10-24T00:45:53.132Z,18.03
2022-10-24T00:48:33.618Z,17.98
2022-10-24T00:51:21.513Z,17.97
2022-10-24T00:53:50.818Z,17.93
2022-10-24T00:56:21.324Z,17.98
2022-10-24T00:58:49.983Z,18.00
2022-10-24T01:01:16.773Z,17.97
2022-10-24T01:03:43.427Z,17.99
2022-10-24T01:06:31.693Z,18.04
2022-10-24T01:09:14.861Z,18.07
2022-10-24T01:12:28.353Z,18.02
2022-10-24T01:15:18.854Z,17.98
2022-10-24T01:17:56.364Z,17.96
2022-10-24T01:20:25.540Z,17.93
2022-10-24T01:23:07.127Z,17.89
2022-10-24T01:25:56.196Z,17.88
2022-10-24T01:28:32.727Z,17.85
2022-10-24T01:31:10.055Z,17.84
2022-10-24T01:33:42.546Z,17.82
2022-10-24T01:36:20.775Z,17.86
2022-10-24T01:39:12.864Z,17.86
2022-10-24T01:41:41.735Z,17.85
2022-10-24T01:44:24.696Z,17.89
2022-10-24T01:46:56.525Z,17.85
2022-10-24T01:49:28.451Z,17.89
2022-10-24T01:51:59.996Z,17.88
2022-10-24T01:54:27.864Z,17.91
2022-10-24T01:56:54.390Z,17.92
2022-10-24T01:59:29.828Z,17.92
2022-10-24T02:02:11.941Z,17.89
2022-10-24T02:04:45.954Z,17.89
2022-10-24T02:07:14.123Z,17.92
2022-10-24T02:09:43.419Z,17.93
2022-10-24T02:12:13.593Z,17.92
2022-10-24T02:14:46.481Z,17.91
2022-10-24T02:17:13.171Z,17.91
2022-10-24T02:19:39.827Z,17.93
2022-10-24T02:22:28.201Z,17.95
2022-10-24T02:25:07.013Z,17.93
2022-10-24T02:27:42.659Z,17.96
2022-10-24T02:30:15.809Z,17.99
2022-10-24T02:32:45.653Z,18.02
2022-10-24T02:35:15.684Z,18.02
2022-10-24T02:37:50.258Z,18.01
2022-10-24T02:40:19.941Z,18.01
2022-10-24T02:42:47.940Z,18.01
2022-10-24T02:45:16.332Z,17.97
2022-10-24T02:47:45.007Z,18.03
2022-10-24T02:50:13.497Z,18.04
2022-10-24T02:52:41.678Z,18.08
2022-10-24T02:55:08.935Z,18.08
2022-10-24T02:57:35.558Z,18.10
2022-10-24T03:00:02.131Z,18.12
2022-10-24T03:02:28.715Z,18.16
2022-10-24T03:04:55.254Z,18.13
2022-10-24T03:07:21.991Z,18.13
2022-10-24T03:09:48.577Z,18.14
2022-10-24T03:12:16.808Z,18.18
2022-10-24T03:14:45.219Z,18.18
2022-10-24T03:17:11.875Z,18.20
2022-10-24T03:19:38.528Z,18.21
2022-10-24T03:22:05.295Z,18.23
2022-10-24T03:24:43.727Z,18.26
2022-10-24T03:27:18.488Z,18.29
2022-10-24T03:29:45.046Z,18.32
2022-10-24T03:32:11.675Z,18.33
2022-10-24T03:34:38.431Z,18.36
2022-10-24T03:37:05.174Z,18.39
2022-10-24T03:39:31.824Z,18.42
2022-10-24T03:41:58.295Z,18.43
2022-10-24T03:44:25.040Z,18.47
2022-10-24T03:46:51.653Z,18.52
2022-10-24T03:49:18.184Z,18.56
2022-10-24T03:51:44.922Z,18.58
2022-10-24T03:54:13.101Z,18.60
2022-10-24T03:56:39.779Z,18.62
2022-10-24T03:59:06.364Z,18.63
2022-10-24T04:01:33.138Z,18.62
2022-10-24T04:03:59.793Z,18.57
2022-10-24T04:06:26.446Z,18.49
2022-10-24T04:08:53.016Z,18.48
2022-10-24T04:11:19.842Z,18.55
2022-10-24T04:13:46.446Z,18.57
2022-10-24T04:16:13.045Z,18.55
2022-10-24T04:18:39.645Z,18.50
2022-10-24T04:21:06.537Z,18.43
2022-10-24T04:23:35.753Z,18.46
2022-10-24T04:26:02.318Z,18.40
2022-10-24T04:28:30.067Z,18.42
2022-10-24T04:30:57.322Z,18.48
2022-10-24T04:33:24.461Z,18.57
2022-10-24T04:35:52.361Z,18.63
2022-10-24T04:38:19.391Z,18.66
2022-10-24T04:40:48.673Z,18.62
2022-10-24T04:43:15.747Z,18.54
2022-10-24T04:45:42.328Z,18.55
2022-10-24T04:48:09.031Z,18.55
2022-10-24T04:50:35.788Z,18.57
2022-10-24T04:53:03.145Z,18.60
2022-10-24T04:55:30.177Z,18.62
2022-10-24T04:57:56.792Z,18.60
2022-10-24T05:00:23.671Z,18.53
2022-10-24T05:02:52.975Z,18.43
2022-10-24T05:05:22.141Z,18.44
2022-10-24T05:07:49.094Z,18.46
2022-10-24T05:10:16.751Z,18.42
2022-10-24T05:12:44.589Z,18.37
2022-10-24T05:15:11.874Z,18.29
2022-10-24T05:17:38.406Z,18.23
2022-10-24T05:20:05.579Z,18.17
2022-10-24T05:22:32.141Z,18.13
2022-10-24T05:24:58.783Z,18.09
2022-10-24T05:27:25.346Z,18.05
2022-10-24T05:29:53.348Z,18.11
2022-10-24T05:32:22.234Z,18.13
2022-10-24T05:34:48.994Z,18.16
2022-10-24T05:37:15.728Z,18.15
2022-10-24T05:39:42.270Z,18.11
2022-10-24T05:42:09.560Z,18.15
2022-10-24T05:44:36.153Z,18.18
2022-10-24T05:47:02.822Z,18.24
2022-10-24T05:49:29.611Z,18.24
2022-10-24T05:51:56.302Z,18.27
2022-10-24T05:54:22.933Z,18.31
2022-10-24T05:56:49.591Z,18.28
2022-10-24T05:59:16.182Z,18.28
2022-10-24T06:01:43.090Z,18.29
2022-10-24T06:04:12.886Z,18.37
2022-10-24T06:06:42.352Z,18.33
2022-10-24T06:09:09.449Z,18.21
2022-10-24T06:11:36.246Z,18.17
2022-10-24T06:14:03.924Z,18.13
2022-10-24T06:16:30.865Z,18.11
2022-10-24T06:18:57.879Z,18.10
2022-10-24T06:21:25.069Z,18.14
2022-10-24T06:23:51.946Z,18.17
2022-10-24T06:26:21.692Z,18.24
2022-10-24T06:28:50.624Z,18.28
2022-10-24T06:31:18.562Z,18.27
2022-10-24T06:33:45.121Z,18.31
2022-10-24T06:36:12.106Z,18.33
2022-10-24T06:38:38.717Z,18.37
2022-10-24T06:41:07.552Z,18.41
2022-10-24T06:43:34.121Z,18.44
2022-10-24T06:46:05.476Z,18.45
2022-10-24T06:48:32.175Z,18.50
2022-10-24T06:50:58.741Z,18.50
2022-10-24T06:53:25.301Z,18.50
2022-10-24T06:55:51.916Z,18.49
2022-10-24T06:58:18.474Z,18.52
2022-10-24T07:00:45.499Z,18.51
2022-10-24T07:03:15.946Z,18.57
2022-10-24T07:05:42.942Z,18.62
2022-10-24T07:08:10.968Z,18.67
2022-10-24T07:10:37.706Z,18.69
2022-10-24T07:13:04.237Z,18.66
2022-10-24T07:15:30.826Z,18.64
2022-10-24T07:17:57.361Z,18.61
2022-10-24T07:20:23.964Z,18.55
2022-10-24T07:22:50.609Z,18.58
2022-10-24T07:25:18.328Z,18.49
2022-10-24T07:27:44.883Z,18.46
2022-10-24T07:30:17.370Z,18.49
2022-10-24T07:32:44.268Z,18.52
2022-10-24T07:35:12.892Z,18.49
2022-10-24T07:37:39.798Z,18.47
2022-10-24T07:40:07.104Z,18.50
2022-10-24T07:42:33.831Z,18.56
2022-10-24T07:45:00.601Z,18.62
2022-10-24T07:47:27.252Z,18.70
2022-10-24T07:49:54.272Z,18.77
2022-10-24T07:52:20.915Z,18.78
2022-10-24T07:54:47.436Z,18.82
2022-10-24T07:57:14.137Z,18.91
2022-10-24T07:59:42.713Z,18.95
2022-10-24T08:02:13.908Z,19.02
2022-10-24T08:04:41.302Z,19.16
2022-10-24T08:07:13.275Z,19.26
2022-10-24T08:09:42.638Z,19.32
2022-10-24T08:12:09.548Z,19.36
2022-10-24T08:14:41.333Z,19.25
2022-10-24T08:17:08.115Z,19.32
2022-10-24T08:19:35.185Z,19.43
2022-10-24T08:22:02.416Z,19.54
2022-10-24T08:24:29.231Z,19.63
2022-10-24T08:26:56.805Z,19.51
2022-10-24T08:29:23.768Z,19.58
2022-10-24T08:31:53.222Z,19.58
2022-10-24T08:34:20.497Z,19.52
2022-10-24T08:36:48.563Z,19.49
2022-10-24T08:39:16.377Z,19.55
2022-10-24T08:41:47.016Z,19.62
2022-10-24T08:44:26.898Z,19.74
2022-10-24T08:47:26.142Z,19.61
2022-10-24T08:49:57.562Z,19.48
2022-10-24T08:52:31.168Z,19.48
2022-10-24T08:55:04.737Z,19.50
2022-10-24T09:00:27.738Z,19.79
2022-10-24T09:03:43.874Z,19.83
2022-10-24T09:06:30.398Z,19.93
2022-10-24T09:09:15.450Z,20.10
2022-10-24T09:11:57.042Z,20.40
2022-10-24T09:14:27.825Z,20.35
2022-10-24T09:19:55.608Z,20.50
2022-10-24T09:22:25.461Z,20.52
2022-10-24T09:25:01.320Z,20.45
2022-10-24T09:27:30.920Z,20.32
2022-10-24T09:29:58.775Z,20.28
2022-10-24T09:32:30.681Z,20.17
2022-10-24T09:35:09.087Z,19.95
2022-10-24T09:37:49.417Z,19.86
2022-10-24T09:40:21.310Z,19.76
2022-10-24T09:43:17.452Z,19.96
2022-10-24T09:45:48.448Z,20.27
2022-10-24T09:48:17.696Z,20.34
2022-10-24T09:50:46.888Z,20.43
2022-10-24T09:53:24.969Z,20.33
2022-10-24T09:55:56.447Z,20.32
2022-10-24T09:58:32.601Z,20.65
2022-10-24T10:01:22.657Z,20.86
2022-10-24T10:04:09.045Z,20.85
2022-10-24T10:06:45.257Z,21.38
2022-10-24T10:09:15.010Z,22.09
2022-10-24T10:11:49.518Z,22.33
2022-10-24T10:14:29.321Z,21.96
2022-10-24T10:17:02.486Z,21.66
2022-10-24T10:19:36.480Z,21.23
2022-10-24T10:22:22.887Z,20.88
2022-10-24T10:24:49.672Z,20.47
2022-10-24T10:27:40.571Z,20.25
2022-10-24T10:30:16.388Z,20.24
2022-10-24T10:33:06.689Z,20.50
2022-10-24T10:35:44.567Z,20.95
2022-10-24T10:38:51.328Z,21.39
2022-10-24T10:41:33.193Z,21.45
2022-10-24T10:43:59.701Z,21.12
2022-10-24T10:46:48.693Z,21.15
2022-10-24T10:49:24.887Z,21.61
2022-10-24T10:52:03.015Z,22.28
2022-10-24T10:55:05.559Z,22.22
2022-10-24T10:57:54.109Z,21.87
2022-10-24T11:00:38.445Z,21.89
2022-10-24T11:03:20.952Z,23.49
2022-10-24T11:06:09.065Z,23.86
2022-10-24T11:08:53.946Z,23.58
2022-10-24T11:11:30.234Z,23.27
2022-10-24T11:14:09.180Z,22.96
2022-10-24T11:16:36.226Z,23.24
2022-10-24T11:19:26.683Z,23.84
2022-10-24T11:21:57.098Z,23.74
2022-10-24T11:24:25.167Z,24.27
2022-10-24T11:27:03.332Z,26.24
2022-10-24T11:29:34.107Z,28.18
2022-10-24T11:32:24.186Z,30.84
2022-10-24T11:35:29.036Z,32.64
2022-10-24T11:38:17.415Z,31.98
2022-10-24T11:40:48.471Z,31.83
2022-10-24T11:43:24.572Z,32.49
2022-10-24T11:46:12.788Z,33.11
2022-10-24T11:48:53.190Z,33.56
2022-10-24T11:51:25.406Z,33.62
2022-10-24T11:53:59.558Z,32.92
2022-10-24T11:56:43.214Z,32.77
2022-10-24T11:59:18.734Z,32.75
2022-10-24T12:02:03.302Z,32.46
2022-10-24T12:04:42.136Z,32.57
2022-10-24T12:07:47.791Z,31.41
2022-10-24T12:10:29.042Z,31.40
2022-10-24T12:13:23.669Z,31.98
2022-10-24T12:16:14.464Z,32.94
2022-10-24T12:18:48.808Z,32.95
2022-10-24T12:21:25.961Z,32.94
2022-10-24T12:23:59.106Z,33.17
2022-10-24T12:26:37.473Z,32.47
2022-10-24T12:29:06.888Z,32.26
2022-10-24T12:31:38.231Z,31.61
2022-10-24T12:34:20.655Z,29.73
2022-10-24T12:37:08.613Z,28.13
2022-10-24T12:39:37.039Z,27.20
2022-10-24T12:42:04.653Z,26.91
2022-10-24T12:44:34.379Z,26.76
2022-10-24T12:47:22.780Z,26.50
2022-10-24T12:49:52.017Z,25.88
2022-10-24T12:52:31.135Z,25.42
2022-10-24T12:54:59.302Z,24.77
2022-10-24T12:57:36.538Z,24.82
2022-10-24T13:00:21.719Z,24.74
2022-10-24T13:03:00.863Z,24.59
2022-10-24T13:05:52.841Z,24.27
2022-10-24T13:08:43.628Z,24.18
2022-10-24T13:11:36.962Z,24.18
2022-10-24T13:14:06.429Z,24.11
2022-10-24T13:16:45.263Z,23.91
2022-10-24T13:19:18.468Z,23.81
2022-10-24T13:21:48.143Z,23.67
2022-10-24T13:24:19.819Z,23.58
2022-10-24T13:26:56.717Z,23.40
2022-10-24T13:29:23.354Z,23.28
2022-10-24T13:31:55.606Z,23.21
2022-10-24T13:34:44.723Z,23.26
2022-10-24T13:37:27.019Z,23.16
2022-10-24T13:40:02.745Z,23.06
2022-10-24T13:42:43.225Z,22.99
2022-10-24T13:45:30.706Z,22.99
2022-10-24T13:48:13.093Z,22.95
2022-10-24T13:50:51.761Z,22.99
2022-10-24T13:53:31.092Z,22.97
2022-10-24T13:56:03.364Z,23.01
2022-10-24T13:58:41.027Z,22.99
2022-10-24T14:01:25.805Z,23.05
2022-10-24T14:03:54.486Z,23.05
2022-10-24T14:06:26.749Z,23.05
2022-10-24T14:09:04.202Z,22.89
2022-10-24T14:11:35.266Z,22.80
2022-10-24T14:14:06.081Z,22.87
2022-10-24T14:16:35.494Z,23.03
2022-10-24T14:19:23.570Z,23.01
2022-10-24T14:21:54.910Z,23.14
2022-10-24T14:24:23.571Z,23.23
2022-10-24T14:26:53.505Z,23.23
2022-10-24T14:29:33.997Z,23.13
2022-10-24T14:32:05.237Z,22.97
2022-10-24T14:34:36.288Z,22.84
2022-10-24T14:37:06.566Z,22.85
2022-10-24T14:39:33.999Z,22.81
2022-10-24T14:42:01.749Z,22.72
2022-10-24T14:44:29.060Z,22.66
2022-10-24T14:47:21.729Z,22.58
2022-10-24T14:49:48.541Z,22.45
2022-10-24T14:52:15.335Z,22.34
2022-10-24T14:54:51.049Z,22.27
2022-10-24T14:57:21.964Z,22.24
2022-10-24T14:59:52.486Z,22.21
2022-10-24T15:02:19.663Z,22.22
2022-10-24T15:04:47.888Z,22.21
2022-10-24T15:07:14.893Z,22.27
2022-10-24T15:09:59.449Z,22.17
2022-10-24T15:12:48.306Z,22.13
2022-10-24T15:15:22.485Z,22.13
2022-10-24T15:17:51.704Z,22.26
2022-10-24T15:20:22.384Z,22.38
2022-10-24T15:22:56.348Z,22.32
2022-10-24T15:25:26.687Z,22.12
2022-10-24T15:27:59.269Z,21.95
2022-10-24T15:30:29.256Z,21.76
2022-10-24T15:32:57.984Z,21.59
2022-10-24T15:35:25.255Z,21.46
2022-10-24T15:38:10.477Z,21.34
2022-10-24T15:40:45.146Z,21.20
2022-10-24T15:43:13.607Z,21.16
2022-10-24T15:45:40.577Z,21.14
2022-10-24T15:48:07.472Z,21.17
2022-10-24T15:50:34.700Z,21.13
2022-10-24T15:53:04.273Z,21.06
2022-10-24T15:55:32.354Z,21.07
2022-10-24T15:58:03.029Z,21.11
2022-10-24T16:00:29.808Z,21.15
2022-10-24T16:03:00.721Z,21.12
2022-10-24T16:05:38.159Z,21.15
2022-10-24T16:08:05.647Z,21.15
2022-10-24T16:10:32.588Z,21.07
2022-10-24T16:12:59.183Z,20.95
2022-10-24T16:15:34.358Z,20.91
2022-10-24T16:18:01.092Z,20.88
2022-10-24T16:20:27.790Z,20.84
2022-10-24T16:22:54.886Z,20.85
2022-10-24T16:25:29.391Z,20.81
2022-10-24T16:27:56.828Z,20.74
2022-10-24T16:30:26.497Z,20.73
2022-10-24T16:32:52.985Z,20.60
2022-10-24T16:35:28.701Z,20.44
2022-10-24T16:37:57.552Z,20.46
2022-10-24T16:40:26.850Z,20.50
2022-10-24T16:42:56.122Z,20.45
2022-10-24T16:45:23.426Z,20.40
2022-10-24T16:47:50.983Z,20.41
2022-10-24T16:50:23.981Z,20.46
2022-10-24T16:52:55.412Z,20.52
2022-10-24T16:55:22.954Z,20.51
2022-10-24T16:57:49.845Z,20.40
2022-10-24T17:00:18.382Z,20.41
2022-10-24T17:02:46.219Z,20.40
2022-10-24T17:05:13.600Z,20.33
2022-10-24T17:07:42.059Z,20.26
2022-10-24T17:10:11.608Z,20.20
2022-10-24T17:12:39.453Z,20.17
2022-10-24T17:15:06.996Z,20.15
2022-10-24T17:17:33.891Z,20.17
2022-10-24T17:20:01.663Z,20.24
2022-10-24T17:22:29.273Z,20.32
2022-10-24T17:24:56.472Z,20.34
2022-10-24T17:27:23.379Z,20.32
2022-10-24T17:29:50.578Z,20.40
2022-10-24T17:32:18.298Z,20.42
2022-10-24T17:34:50.101Z,20.37
2022-10-24T17:37:20.201Z,20.39
2022-10-24T17:40:05.936Z,20.40
2022-10-24T17:42:33.434Z,20.41
2022-10-24T17:45:00.481Z,20.32
2022-10-24T17:47:27.216Z,20.28
2022-10-24T17:49:53.984Z,20.19
2022-10-24T17:52:24.563Z,20.05
2022-10-24T17:54:54.796Z,19.92
2022-10-24T17:57:21.403Z,19.85
2022-10-24T17:59:48.197Z,19.72
2022-10-24T18:02:17.360Z,19.62
2022-10-24T18:04:44.960Z,19.58
2022-10-24T18:07:11.793Z,19.56
2022-10-24T18:09:40.065Z,19.53
2022-10-24T18:12:07.415Z,19.49
2022-10-24T18:14:37.462Z,19.48
2022-10-24T18:17:04.418Z,19.43
2022-10-24T18:19:31.362Z,19.40
2022-10-24T18:21:58.025Z,19.40
2022-10-24T18:24:25.468Z,19.35
2022-10-24T18:26:52.532Z,19.26
2022-10-24T18:29:19.229Z,19.23
2022-10-24T18:31:46.117Z,19.19
2022-10-24T18:34:13.142Z,19.17
2022-10-24T18:36:39.970Z,19.02
2022-10-24T18:39:07.005Z,18.96
2022-10-24T18:41:56.184Z,19.00
2022-10-24T18:44:28.774Z,18.99
2022-10-24T18:47:01.337Z,18.97
2022-10-24T18:49:33.543Z,18.95
2022-10-24T18:52:26.789Z,18.87
2022-10-24T18:55:04.060Z,18.84
2022-10-24T18:57:33.120Z,18.86
2022-10-24T19:00:00.750Z,18.81
2022-10-24T19:02:43.236Z,18.70
2022-10-24T19:05:39.075Z,18.73
2022-10-24T19:08:12.776Z,18.63
2022-10-24T19:10:40.190Z,18.61
2022-10-24T19:13:07.945Z,18.63
2022-10-24T19:15:38.210Z,18.64
2022-10-24T19:18:05.554Z,18.59
2022-10-24T19:20:35.124Z,18.54
2022-10-24T19:23:05.116Z,18.43
2022-10-24T19:25:33.440Z,18.43
2022-10-24T19:28:00.261Z,18.36
2022-10-24T19:30:27.018Z,18.30
2022-10-24T19:32:55.294Z,18.27
2022-10-24T19:35:22.201Z,18.22
2022-10-24T19:37:49.389Z,18.19
2022-10-24T19:40:16.910Z,18.10
2022-10-24T19:42:43.584Z,18.15
2022-10-24T19:45:10.326Z,18.18
2022-10-24T19:47:36.901Z,18.05
2022-10-24T19:50:03.728Z,17.96
2022-10-24T19:52:30.494Z,17.99
2022-10-24T19:54:57.380Z,18.02
2022-10-24T19:57:24.099Z,18.09
2022-10-24T19:59:50.719Z,17.99
2022-10-24T20:02:17.802Z,17.99
2022-10-24T20:04:48.903Z,18.00
2022-10-24T20:07:17.463Z,17.98
2022-10-24T20:09:44.435Z,18.00
2022-10-24T20:12:11.575Z,17.92
2022-10-24T20:14:38.178Z,17.88
2022-10-24T20:17:04.801Z,17.83
2022-10-24T20:19:31.469Z,17.78
2022-10-24T20:22:00.335Z,17.73
2022-10-24T20:24:30.526Z,17.65
2022-10-24T20:26:57.235Z,17.54
2022-10-24T20:29:23.877Z,17.44
2022-10-24T20:31:50.673Z,17.46
2022-10-24T20:34:17.517Z,17.44
2022-10-24T20:36:47.161Z,17.38
2022-10-24T20:39:16.139Z,17.32
2022-10-24T20:41:43.255Z,17.26
2022-10-24T20:44:11.150Z,17.14
2022-10-24T20:46:38.021Z,17.08
2022-10-24T20:49:05.120Z,17.06
2022-10-24T20:51:31.835Z,17.00
2022-10-24T20:53:58.796Z,16.95
2022-10-24T20:56:26.590Z,16.95
2022-10-24T20:58:55.356Z,16.99
2022-10-24T21:01:24.479Z,16.94
2022-10-24T21:03:53.171Z,16.87
2022-10-24T21:06:22.562Z,16.76
2022-10-24T21:08:51.016Z,16.79
2022-10-24T21:11:24.581Z,16.79
2022-10-24T21:13:55.992Z,16.78
2022-10-24T21:16:23.482Z,16.64
2022-10-24T21:18:50.307Z,16.58
2022-10-24T21:21:17.708Z,16.62
2022-10-24T21:23:44.397Z,16.64
2022-10-24T21:26:14.253Z,16.59
2022-10-24T21:28:41.094Z,16.56
2022-10-24T21:31:10.395Z,16.59
2022-10-24T21:33:38.113Z,16.63
2022-10-24T21:36:10.928Z,16.68
2022-10-24T21:38:37.927Z,16.61
2022-10-24T21:41:07.747Z,16.50
2022-10-24T21:43:37.132Z,16.54
2022-10-24T21:46:12.771Z,16.58
2022-10-24T21:48:40.833Z,16.52
2022-10-24T21:51:17.124Z,16.41
2022-10-24T21:53:50.484Z,16.40
2022-10-24T21:56:20.737Z,16.35
2022-10-24T21:58:49.051Z,16.33
2022-10-24T22:01:18.949Z,16.26
2022-10-24T22:03:46.446Z,16.28
2022-10-24T22:06:15.624Z,16.30
2022-10-24T22:08:43.317Z,16.15
2022-10-24T22:11:12.321Z,16.13
2022-10-24T22:13:39.362Z,16.15
2022-10-24T22:16:06.996Z,16.16
2022-10-24T22:18:34.325Z,16.13
2022-10-24T22:21:02.617Z,16.18
2022-10-24T22:23:29.532Z,16.11
2022-10-24T22:25:58.324Z,16.14
2022-10-24T22:28:25.504Z,16.36
2022-10-24T22:30:52.429Z,16.43
2022-10-24T22:33:42.166Z,16.50
2022-10-24T22:36:19.718Z,16.50
2022-10-24T22:38:47.034Z,16.34
2022-10-24T22:41:13.988Z,16.30
2022-10-24T22:43:40.930Z,16.14
2022-10-24T22:46:40.187Z,16.08
2022-10-24T22:49:18.048Z,16.05
2022-10-24T22:51:44.949Z,16.01
2022-10-24T22:54:19.707Z,16.00
2022-10-24T22:56:46.850Z,16.01
2022-10-24T22:59:16.403Z,16.05
2022-10-24T23:01:58.556Z,16.06
2022-10-24T23:04:46.506Z,15.97
2022-10-24T23:07:55.428Z,15.91
2022-10-24T23:10:25.189Z,15.89
2022-10-24T23:12:52.437Z,15.87
2022-10-24T23:15:20.958Z,15.78
2022-10-24T23:17:49.006Z,15.74
2022-10-24T23:20:34.620Z,15.77
2022-10-24T23:23:15.756Z,15.73
2022-10-24T23:25:52.145Z,15.76
2022-10-24T23:28:35.061Z,15.69
2022-10-24T23:33:30.187Z,15.59
2022-10-24T23:36:00.372Z,15.55
2022-10-24T23:38:27.880Z,15.62
2022-10-24T23:40:55.015Z,15.67
2022-10-24T23:43:23.058Z,15.71
2022-10-24T23:45:59.080Z,15.67
2022-10-24T23:48:25.814Z,15.52
2022-10-24T23:51:17.776Z,15.59
2022-10-24T23:53:54.841Z,15.63
2022-10-24T23:56:24.395Z,15.55
2022-10-24T23:58:51.676Z,15.60
